createdAt,value
2019-02-04T00:01:49.135Z,0.00
2019-02-04T00:07:53.787Z,-0.10
2019-02-04T00:13:59.723Z,-0.10
2019-02-04T00:20:07.575Z,-0.10
2019-02-04T00:26:13.571Z,-0.20
2019-02-04T00:32:18.273Z,-0.30
2019-02-04T00:38:23.191Z,-0.50
2019-02-04T00:44:27.852Z,-0.60
2019-02-04T00:50:32.675Z,-0.60
2019-02-04T00:56:37.362Z,-0.60
2019-02-04T01:02:42.278Z,-0.60
2019-02-04T01:08:47.599Z,-0.70
2019-02-04T01:14:52.307Z,-0.80
2019-02-04T01:20:56.959Z,-0.90
2019-02-04T01:27:01.648Z,-0.90
2019-02-04T01:33:06.352Z,-0.80
2019-02-04T01:39:11.242Z,-0.90
2019-02-04T01:45:15.983Z,-0.90
2019-02-04T01:51:20.562Z,-0.90
2019-02-04T01:57:25.485Z,-0.90
2019-02-04T02:03:30.957Z,-0.80
2019-02-04T02:09:35.756Z,-0.70
2019-02-04T02:15:41.162Z,-0.70
2019-02-04T02:21:45.913Z,-0.60
2019-02-04T02:27:50.645Z,-0.70
2019-02-04T02:33:55.812Z,-0.70
2019-02-04T02:40:00.518Z,-0.50
2019-02-04T02:46:05.725Z,-0.20
2019-02-04T02:52:11.229Z,0.00
2019-02-04T02:58:15.889Z,0.10
2019-02-04T03:04:20.527Z,0.30
2019-02-04T03:10:28.964Z,0.50
2019-02-04T03:16:33.666Z,0.70
2019-02-04T03:22:38.763Z,0.80
2019-02-04T03:28:43.634Z,0.90
2019-02-04T03:34:48.252Z,0.80
2019-02-04T03:40:53.081Z,0.70
2019-02-04T03:46:57.640Z,0.50
2019-02-04T03:53:05.459Z,0.20
2019-02-04T03:59:10.235Z,0.00
2019-02-04T04:05:15.198Z,-0.20
2019-02-04T04:11:20.041Z,-0.30
2019-02-04T04:17:24.668Z,-0.40
2019-02-04T04:23:30.335Z,-0.40
2019-02-04T04:29:35.065Z,-0.30
2019-02-04T04:35:40.138Z,-0.10
2019-02-04T04:41:44.943Z,0.20
2019-02-04T04:47:49.736Z,0.40
2019-02-04T04:53:54.566Z,0.60
2019-02-04T04:59:59.604Z,0.80
2019-02-04T05:06:04.323Z,0.90
2019-02-04T05:12:09.254Z,1.00
2019-02-04T05:18:17.596Z,1.00
2019-02-04T05:24:22.304Z,1.10
2019-02-04T05:30:27.228Z,1.10
2019-02-04T05:36:32.299Z,1.00
2019-02-04T05:42:37.095Z,0.90
2019-02-04T05:48:49.160Z,0.80
2019-02-04T05:54:49.226Z,0.80
2019-02-04T06:00:53.936Z,0.80
2019-02-04T06:07:00.176Z,0.80
2019-02-04T06:13:04.952Z,0.90
2019-02-04T06:19:11.877Z,0.90
2019-02-04T06:25:16.452Z,1.00
2019-02-04T06:31:22.917Z,1.00
2019-02-04T06:37:27.650Z,1.00
2019-02-04T06:43:32.668Z,1.00
2019-02-04T06:49:37.591Z,1.10
2019-02-04T06:55:42.676Z,1.10
2019-02-04T07:01:47.390Z,1.00
2019-02-04T07:07:51.942Z,1.00
2019-02-04T07:13:56.509Z,1.00
2019-02-04T07:20:02.007Z,1.00
2019-02-04T07:26:07.016Z,1.10
2019-02-04T07:32:12.240Z,1.20
2019-02-04T07:38:16.895Z,1.20
2019-02-04T07:44:24.848Z,1.30
2019-02-04T07:50:29.557Z,1.40
2019-02-04T07:56:34.110Z,1.60
2019-02-04T08:02:38.942Z,1.60
2019-02-04T08:08:44.114Z,1.50
2019-02-04T08:14:48.712Z,1.30
2019-02-04T08:20:54.140Z,1.20
2019-02-04T08:26:58.996Z,1.20
2019-02-04T08:33:03.885Z,1.10
2019-02-04T08:39:09.002Z,1.00
2019-02-04T08:45:15.264Z,1.00
2019-02-04T08:51:20.046Z,1.00
2019-02-04T08:57:24.729Z,1.10
2019-02-04T09:03:29.357Z,1.20
2019-02-04T09:09:34.353Z,1.40
2019-02-04T09:15:39.478Z,1.60
2019-02-04T09:21:44.115Z,1.70
2019-02-04T09:27:48.823Z,1.90
2019-02-04T09:33:53.486Z,2.30
2019-02-04T09:39:58.059Z,2.40
2019-02-04T09:46:05.811Z,2.70
2019-02-04T09:52:14.094Z,3.00
2019-02-04T09:58:18.982Z,3.10
2019-02-04T10:04:23.678Z,3.40
2019-02-04T10:10:31.245Z,3.90
2019-02-04T10:16:36.075Z,4.20
2019-02-04T10:22:40.949Z,4.40
2019-02-04T10:28:46.066Z,4.50
2019-02-04T10:34:51.711Z,4.40
2019-02-04T10:40:56.418Z,4.40
2019-02-04T10:47:01.139Z,4.40
2019-02-04T10:53:07.657Z,4.50
2019-02-04T10:59:12.623Z,4.60
2019-02-04T11:05:24.451Z,4.50
2019-02-04T11:11:29.176Z,4.60
2019-02-04T11:17:33.950Z,4.70
2019-02-04T11:23:40.546Z,4.90
2019-02-04T11:29:45.243Z,5.00
2019-02-04T11:35:50.098Z,5.10
2019-02-04T11:41:54.791Z,5.30
2019-02-04T11:48:00.176Z,5.50
2019-02-04T11:54:05.029Z,5.50
2019-02-04T12:00:19.725Z,5.60
2019-02-04T12:06:24.298Z,5.80
2019-02-04T12:12:30.124Z,5.90
2019-02-04T12:18:34.896Z,5.90
2019-02-04T12:24:40.111Z,5.90
2019-02-04T12:30:45.577Z,6.00
2019-02-04T12:36:50.223Z,6.10
2019-02-04T12:42:54.992Z,6.10
2019-02-04T12:48:59.619Z,6.10
2019-02-04T12:55:06.630Z,6.10
2019-02-04T13:01:11.904Z,5.90
2019-02-04T13:07:16.705Z,5.70
2019-02-04T13:13:21.459Z,5.70
2019-02-04T13:19:26.047Z,5.80
2019-02-04T13:25:31.419Z,5.80
2019-02-04T13:31:35.983Z,5.80
2019-02-04T13:37:40.848Z,5.70
2019-02-04T13:43:45.897Z,5.70
2019-02-04T13:49:50.518Z,5.70
2019-02-04T13:55:55.152Z,5.70
2019-02-04T14:01:59.779Z,5.70
2019-02-04T14:08:06.205Z,5.60
2019-02-04T14:14:10.955Z,5.60
2019-02-04T14:20:26.749Z,5.60
2019-02-04T14:26:31.374Z,5.60
2019-02-04T14:32:36.065Z,5.50
2019-02-04T14:38:40.898Z,5.50
2019-02-04T14:44:48.804Z,5.40
2019-02-04T14:51:23.008Z,5.30
2019-02-04T14:58:00.710Z,5.20
2019-02-04T15:04:21.452Z,5.00
2019-02-04T15:10:36.231Z,4.80
2019-02-04T15:16:48.031Z,4.70
2019-02-04T15:23:07.497Z,4.60
2019-02-04T15:29:16.784Z,4.50
2019-02-04T15:36:06.324Z,4.40
2019-02-04T15:42:32.385Z,4.40
2019-02-04T15:48:44.059Z,4.30
2019-02-04T15:54:48.803Z,4.10
2019-02-04T16:00:53.746Z,4.00
2019-02-04T16:06:58.369Z,4.00
2019-02-04T16:13:03.726Z,3.70
2019-02-04T16:19:08.285Z,3.40
2019-02-04T16:25:14.962Z,3.30
2019-02-04T16:31:19.552Z,3.30
2019-02-04T16:37:24.455Z,3.40
2019-02-04T16:43:29.465Z,3.40
2019-02-04T16:49:34.134Z,3.50
2019-02-04T16:55:38.818Z,3.50
2019-02-04T17:01:43.621Z,3.50
2019-02-04T17:07:48.897Z,3.50
2019-02-04T17:13:53.540Z,3.50
2019-02-04T17:19:58.180Z,3.50
2019-02-04T17:26:02.817Z,3.50
2019-02-04T17:32:07.519Z,3.40
2019-02-04T17:38:12.213Z,3.50
2019-02-04T17:44:17.073Z,3.50
2019-02-04T17:50:23.257Z,3.50
2019-02-04T17:56:28.028Z,3.40
2019-02-04T18:02:32.590Z,3.30
2019-02-04T18:08:37.158Z,3.20
2019-02-04T18:14:43.019Z,3.10
2019-02-04T18:20:47.708Z,2.90
2019-02-04T18:26:52.526Z,2.70
2019-02-04T18:32:57.352Z,2.60
2019-02-04T18:39:02.420Z,2.60
2019-02-04T18:45:14.535Z,2.50
2019-02-04T18:51:21.627Z,2.50
2019-02-04T18:57:26.830Z,2.50
2019-02-04T19:03:31.531Z,2.50
2019-02-04T19:09:36.101Z,2.50
2019-02-04T19:15:40.936Z,2.40
2019-02-04T19:21:45.686Z,2.50
2019-02-04T19:27:51.718Z,2.40
2019-02-04T19:33:56.416Z,2.40
2019-02-04T19:40:01.227Z,2.30
2019-02-04T19:46:09.285Z,2.20
2019-02-04T19:52:14.134Z,2.20
2019-02-04T19:58:19.020Z,2.10
2019-02-04T20:04:23.691Z,2.20
2019-02-04T20:10:33.997Z,2.20
2019-02-04T20:16:40.537Z,2.30
2019-02-04T20:22:45.387Z,2.20
2019-02-04T20:28:50.011Z,2.20
2019-02-04T20:34:54.640Z,2.30
2019-02-04T20:40:59.348Z,2.50
2019-02-04T20:47:04.212Z,2.50
2019-02-04T20:53:08.858Z,2.60
2019-02-04T20:59:13.655Z,2.60
2019-02-04T21:05:18.663Z,2.70
2019-02-04T21:11:23.289Z,2.80
2019-02-04T21:17:29.253Z,2.90
2019-02-04T21:23:33.872Z,2.80
2019-02-04T21:29:38.484Z,2.90
2019-02-04T21:35:43.245Z,2.90
2019-02-04T21:41:48.205Z,2.90
2019-02-04T21:47:53.636Z,3.00
2019-02-04T21:53:58.526Z,3.10
2019-02-04T22:00:04.987Z,3.10
2019-02-04T22:06:11.697Z,3.10
2019-02-04T22:12:16.385Z,3.10
2019-02-04T22:18:20.949Z,3.10
2019-02-04T22:24:25.893Z,3.10
2019-02-04T22:30:31.637Z,3.20
2019-02-04T22:36:36.253Z,3.30
2019-02-04T22:42:41.121Z,3.40
2019-02-04T22:48:46.026Z,3.40
2019-02-04T22:54:50.578Z,3.50
2019-02-04T23:01:05.582Z,3.50
